Kezdőlap
METAR-TAF:

METAR-TAF

Repülőterek :

Buckeye, Arizona, Amerikai Egyesült Államok

földrajzi szélesség: 33-25-14N, földrajzi hosszúság: 112-41-10W, magasság: 315 m

Jelenlegi meteorológiai megfigyelések

A jelentés 29 perccel ezelõtt készült, 06:55 UTC
Keleti szél 5 kt
Hőmérséklet 35°C
Páratartalom 20%
Légköri nyomás 1008 hPa
Látótávolság: 16.1 km
Derült ég

METAR: KBXK 220655Z AUTO 08005KT 10SM CLR 35/09 A2976 RMK A01

Idő: 00:24 (07:24 UTC)


TAF: hiányzik

Meteorológiai megfigyelések és előrejelzések több, mint 4000 repülőtéren (METAR és TAF jelentéseket).

A térképen piros és sárga pontok jelzik az elérhető meteorológiai állomásokat.

Mozgassa az egeret a pont fölött, hogy megjelenjen az állomás neve.

Azután kattintson az időjárási megfigyelések és előrejelzések megtekintéséhez.

A térkép megváltoztatása: kattintson a fekete keresztel jelölt zöld gombra ráközelítéshez, a vonallal jelölt zöld gombra távolításhoz, vagy a zöld nyilakra a szomszédos térképek eléréséhez.


METAR-TAF: